sensor_id;sensor_type;location;lat;lon;timestamp;pressure;altitude;pressure_sealevel;temperature;humidity
8894;BME280;4483;48.622;9.230;2023-04-01T00:02:00;96612.25;;;8.82;100.00
8894;BME280;4483;48.622;9.230;2023-04-01T00:04:26;96616.78;;;8.77;100.00
8894;BME280;4483;48.622;9.230;2023-04-01T00:06:53;96609.81;;;8.79;100.00
8894;BME280;4483;48.622;9.230;2023-04-01T00:09:19;96610.66;;;8.80;100.00
8894;BME280;4483;48.622;9.230;2023-04-01T00:11:46;96613.41;;;8.77;100.00
8894;BME280;4483;48.622;9.230;2023-04-01T00:14:14;96612.38;;;8.79;100.00
8894;BME280;4483;48.622;9.230;2023-04-01T00:16:41;96607.03;;;8.84;100.00
8894;BME280;4483;48.622;9.230;2023-04-01T00:19:07;96602.88;;;8.81;100.00
8894;BME280;4483;48.622;9.230;2023-04-01T00:21:34;96607.09;;;8.82;100.00
8894;BME280;4483;48.622;9.230;2023-04-01T00:24:02;96593.66;;;8.77;100.00
8894;BME280;4483;48.622;9.230;2023-04-01T00:26:28;96598.41;;;8.85;100.00
8894;BME280;4483;48.622;9.230;2023-04-01T00:28:55;96601.13;;;8.82;100.00
8894;BME280;4483;48.622;9.230;2023-04-01T00:31:23;96587.72;;;8.77;100.00
8894;BME280;4483;48.622;9.230;2023-04-01T00:33:51;96589.44;;;8.76;100.00
8894;BME280;4483;48.622;9.230;2023-04-01T00:36:20;96597.31;;;8.89;100.00
8894;BME280;4483;48.622;9.230;2023-04-01T00:38:48;96594.09;;;8.85;100.00
8894;BME280;4483;48.622;9.230;2023-04-01T00:41:16;96591.84;;;8.79;100.00
8894;BME280;4483;48.622;9.230;2023-04-01T00:43:45;96595.34;;;8.78;100.00
8894;BME280;4483;48.622;9.230;2023-04-01T00:46:12;96595.47;;;8.75;100.00
8894;BME280;4483;48.622;9.230;2023-04-01T00:48:42;96596.56;;;8.71;100.00
8894;BME280;4483;48.622;9.230;2023-04-01T00:51:14;96596.06;;;8.65;100.00
8894;BME280;4483;48.622;9.230;2023-04-01T00:53:45;96603.09;;;8.61;100.00
8894;BME280;4483;48.622;9.230;2023-04-01T00:56:14;96596.41;;;8.59;100.00
8894;BME280;4483;48.622;9.230;2023-04-01T00:58:46;96594.72;;;8.58;100.00
8894;BME280;4483;48.622;9.230;2023-04-01T01:01:14;96591.31;;;8.57;100.00
8894;BME280;4483;48.622;9.230;2023-04-01T01:03:42;96592.50;;;8.67;100.00
8894;BME280;4483;48.622;9.230;2023-04-01T01:06:12;96578.00;;;8.66;100.00
8894;BME280;4483;48.622;9.230;2023-04-01T01:09:06;96596.31;;;8.60;100.00
8894;BME280;4483;48.622;9.230;2023-04-01T01:11:40;96594.97;;;8.53;100.00
8894;BME280;4483;48.622;9.230;2023-04-01T01:14:15;96590.75;;;8.52;100.00
8894;BME280;4483;48.622;9.230;2023-04-01T01:16:45;96599.19;;;8.54;100.00
8894;BME280;4483;48.622;9.230;2023-04-01T01:19:32;96591.56;;;8.53;100.00
8894;BME280;4483;48.622;9.230;2023-04-01T01:22:12;96591.50;;;8.54;100.00
8894;BME280;4483;48.622;9.230;2023-04-01T01:25:03;96596.72;;;8.53;100.00
8894;BME280;4483;48.622;9.230;2023-04-01T01:27:34;96601.38;;;8.62;100.00
8894;BME280;4483;48.622;9.230;2023-04-01T01:30:24;96593.75;;;8.60;100.00
8894;BME280;4483;48.622;9.230;2023-04-01T01:33:11;96594.06;;;8.54;100.00
8894;BME280;4483;48.622;9.230;2023-04-01T01:35:44;96596.44;;;8.57;100.00
8894;BME280;4483;48.622;9.230;2023-04-01T01:38:15;96602.50;;;8.56;100.00
8894;BME280;4483;48.622;9.230;2023-04-01T01:40:46;96602.59;;;8.55;100.00
8894;BME280;4483;48.622;9.230;2023-04-01T01:43:16;96602.88;;;8.66;100.00
8894;BME280;4483;48.622;9.230;2023-04-01T01:45:47;96591.28;;;8.74;100.00
8894;BME280;4483;48.622;9.230;2023-04-01T01:48:15;96593.41;;;8.66;100.00
8894;BME280;4483;48.622;9.230;2023-04-01T01:50:44;96594.25;;;8.67;100.00
8894;BME280;4483;48.622;9.230;2023-04-01T01:53:13;96600.59;;;8.60;100.00
8894;BME280;4483;48.622;9.230;2023-04-01T01:55:42;96598.88;;;8.60;100.00
8894;BME280;4483;48.622;9.230;2023-04-01T01:58:13;96596.41;;;8.59;100.00
8894;BME280;4483;48.622;9.230;2023-04-01T02:00:44;96599.78;;;8.59;100.00
8894;BME280;4483;48.622;9.230;2023-04-01T02:03:13;96595.56;;;8.58;100.00
8894;BME280;4483;48.622;9.230;2023-04-01T02:05:41;96602.69;;;8.53;100.00
8894;BME280;4483;48.622;9.230;2023-04-01T02:08:13;96599.03;;;8.57;100.00
8894;BME280;4483;48.622;9.230;2023-04-01T02:10:43;96599.03;;;8.57;100.00
8894;BME280;4483;48.622;9.230;2023-04-01T02:13:16;96591.00;;;8.48;100.00
8894;BME280;4483;48.622;9.230;2023-04-01T02:15:47;96592.47;;;8.52;100.00
8894;BME280;4483;48.622;9.230;2023-04-01T02:18:15;96606.97;;;8.53;100.00
8894;BME280;4483;48.622;9.230;2023-04-01T02:20:44;96605.47;;;8.49;100.00
8894;BME280;4483;48.622;9.230;2023-04-01T02:23:13;96603.41;;;8.55;100.00
8894;BME280;4483;48.622;9.230;2023-04-01T02:25:41;96589.41;;;8.45;100.00
8894;BME280;4483;48.622;9.230;2023-04-01T02:28:10;96606.53;;;8.45;100.00
8894;BME280;4483;48.622;9.230;2023-04-01T02:30:41;96600.56;;;8.44;100.00
8894;BME280;4483;48.622;9.230;2023-04-01T02:33:09;96606.44;;;8.46;100.00
8894;BME280;4483;48.622;9.230;2023-04-01T02:35:36;96602.69;;;8.53;100.00
8894;BME280;4483;48.622;9.230;2023-04-01T02:38:03;96608.53;;;8.55;100.00
8894;BME280;4483;48.622;9.230;2023-04-01T02:40:43;96606.41;;;8.63;100.00
8894;BME280;4483;48.622;9.230;2023-04-01T02:43:10;96614.03;;;8.65;100.00
8894;BME280;4483;48.622;9.230;2023-04-01T02:45:36;96622.41;;;8.68;100.00
8894;BME280;4483;48.622;9.230;2023-04-01T02:48:04;96614.78;;;8.67;100.00
8894;BME280;4483;48.622;9.230;2023-04-01T02:50:31;96613.94;;;8.66;100.00
8894;BME280;4483;48.622;9.230;2023-04-01T02:52:57;96612.28;;;8.65;100.00
8894;BME280;4483;48.622;9.230;2023-04-01T02:55:24;96606.91;;;8.70;100.00
8894;BME280;4483;48.622;9.230;2023-04-01T02:57:52;96602.78;;;8.67;100.00
8894;BME280;4483;48.622;9.230;2023-04-01T03:00:18;96603.53;;;8.69;99.95
8894;BME280;4483;48.622;9.230;2023-04-01T03:02:45;96603.84;;;8.63;100.00
8894;BME280;4483;48.622;9.230;2023-04-01T03:05:12;96608.81;;;8.66;99.54
8894;BME280;4483;48.622;9.230;2023-04-01T03:07:38;96609.91;;;8.62;99.53
8894;BME280;4483;48.622;9.230;2023-04-01T03:10:06;96598.13;;;8.58;100.00
8894;BME280;4483;48.622;9.230;2023-04-01T03:12:33;96597.47;;;8.55;99.88
8894;BME280;4483;48.622;9.230;2023-04-01T03:15:01;96606.81;;;8.56;99.46
8894;BME280;4483;48.622;9.230;2023-04-01T03:17:28;96609.75;;;8.48;99.83
8894;BME280;4483;48.622;9.230;2023-04-01T03:19:54;96607.53;;;8.42;99.79
8894;BME280;4483;48.622;9.230;2023-04-01T03:22:21;96608.72;;;8.35;99.98
8894;BME280;4483;48.622;9.230;2023-04-01T03:24:48;96611.38;;;8.34;100.00
8894;BME280;4483;48.622;9.230;2023-04-01T03:27:15;96606.34;;;8.32;100.00
8894;BME280;4483;48.622;9.230;2023-04-01T03:29:41;96618.41;;;8.30;100.00
8894;BME280;4483;48.622;9.230;2023-04-01T03:32:09;96614.56;;;8.39;99.39
8894;BME280;4483;48.622;9.230;2023-04-01T03:34:36;96606.25;;;8.34;99.87
8894;BME280;4483;48.622;9.230;2023-04-01T03:37:02;96609.19;;;8.26;99.69
8894;BME280;4483;48.622;9.230;2023-04-01T03:39:30;96613.63;;;8.23;99.81
8894;BME280;4483;48.622;9.230;2023-04-01T03:41:57;96608.00;;;8.16;99.60
8894;BME280;4483;48.622;9.230;2023-04-01T03:44:23;96610.72;;;8.30;98.49
8894;BME280;4483;48.622;9.230;2023-04-01T03:46:50;96612.06;;;8.20;98.34
8894;BME280;4483;48.622;9.230;2023-04-01T03:49:18;96627.00;;;8.12;98.90
8894;BME280;4483;48.622;9.230;2023-04-01T03:51:44;96619.00;;;8.01;99.23
8894;BME280;4483;48.622;9.230;2023-04-01T03:54:11;96623.63;;;7.94;99.73
8894;BME280;4483;48.622;9.230;2023-04-01T03:56:38;96617.81;;;7.91;100.00
8894;BME280;4483;48.622;9.230;2023-04-01T03:59:07;96618.72;;;7.90;100.00
8894;BME280;4483;48.622;9.230;2023-04-01T04:01:34;96610.34;;;7.86;100.00
8894;BME280;4483;48.622;9.230;2023-04-01T04:04:01;96608.69;;;7.85;100.00
8894;BME280;4483;48.622;9.230;2023-04-01T04:06:29;96600.59;;;7.93;100.00
8894;BME280;4483;48.622;9.230;2023-04-01T04:08:55;96596.59;;;7.87;100.00
8894;BME280;4483;48.622;9.230;2023-04-01T04:11:22;96581.53;;;7.81;100.00
8894;BME280;4483;48.622;9.230;2023-04-01T04:13:49;96594.28;;;7.83;100.00
8894;BME280;4483;48.622;9.230;2023-04-01T04:16:17;96583.53;;;7.76;100.00
8894;BME280;4483;48.622;9.230;2023-04-01T04:18:44;96580.19;;;7.74;100.00
8894;BME280;4483;48.622;9.230;2023-04-01T04:21:12;96582.59;;;7.77;100.00
8894;BME280;4483;48.622;9.230;2023-04-01T04:23:40;96578.53;;;7.73;100.00
8894;BME280;4483;48.622;9.230;2023-04-01T04:26:08;96581.16;;;7.72;100.00
8894;BME280;4483;48.622;9.230;2023-04-01T04:28:36;96577.84;;;7.70;100.00
8894;BME280;4483;48.622;9.230;2023-04-01T04:31:02;96571.88;;;7.69;100.00
8894;BME280;4483;48.622;9.230;2023-04-01T04:33:30;96579.53;;;7.71;100.00
8894;BME280;4483;48.622;9.230;2023-04-01T04:35:57;96577.16;;;7.66;100.00
8894;BME280;4483;48.622;9.230;2023-04-01T04:38:25;96573.00;;;7.64;100.00
8894;BME280;4483;48.622;9.230;2023-04-01T04:40:54;96578.13;;;7.64;100.00
8894;BME280;4483;48.622;9.230;2023-04-01T04:43:21;96574.00;;;7.61;100.00
8894;BME280;4483;48.622;9.230;2023-04-01T04:45:47;96575.81;;;7.59;100.00
8894;BME280;4483;48.622;9.230;2023-04-01T04:48:15;96573.47;;;7.55;100.00
8894;BME280;4483;48.622;9.230;2023-04-01T04:50:44;96572.88;;;7.67;100.00
8894;BME280;4483;48.622;9.230;2023-04-01T04:53:11;96578.97;;;7.64;100.00
8894;BME280;4483;48.622;9.230;2023-04-01T04:55:43;96580.69;;;7.64;100.00
8894;BME280;4483;48.622;9.230;2023-04-01T04:58:11;96579.81;;;7.65;100.00
8894;BME280;4483;48.622;9.230;2023-04-01T05:00:37;96575.00;;;7.76;100.00
8894;BME280;4483;48.622;9.230;2023-04-01T05:03:04;96573.19;;;7.78;100.00
8894;BME280;4483;48.622;9.230;2023-04-01T05:05:30;96576.34;;;7.83;100.00
8894;BME280;4483;48.622;9.230;2023-04-01T05:07:57;96580.53;;;7.84;100.00
8894;BME280;4483;48.622;9.230;2023-04-01T05:10:23;96584.50;;;7.91;100.00
8894;BME280;4483;48.622;9.230;2023-04-01T05:12:50;96574.34;;;8.05;100.00
8894;BME280;4483;48.622;9.230;2023-04-01T05:15:18;96587.47;;;7.99;100.00
8894;BME280;4483;48.622;9.230;2023-04-01T05:17:45;96585.50;;;8.04;100.00
8894;BME280;4483;48.622;9.230;2023-04-01T05:20:12;96573.13;;;8.12;100.00
8894;BME280;4483;48.622;9.230;2023-04-01T05:22:39;96572.84;;;8.18;100.00
8894;BME280;4483;48.622;9.230;2023-04-01T05:25:06;96564.13;;;8.21;100.00
8894;BME280;4483;48.622;9.230;2023-04-01T05:27:33;96559.84;;;8.21;100.00
8894;BME280;4483;48.622;9.230;2023-04-01T05:30:00;96555.41;;;8.25;100.00
8894;BME280;4483;48.622;9.230;2023-04-01T05:32:27;96555.28;;;8.28;100.00
8894;BME280;4483;48.622;9.230;2023-04-01T05:34:54;96564.56;;;8.46;98.96
8894;BME280;4483;48.622;9.230;2023-04-01T05:37:21;96554.81;;;8.52;99.09
8894;BME280;4483;48.622;9.230;2023-04-01T05:39:48;96559.13;;;8.67;98.18
8894;BME280;4483;48.622;9.230;2023-04-01T05:42:14;96555.81;;;8.81;96.92
8894;BME280;4483;48.622;9.230;2023-04-01T05:44:41;96550.50;;;8.99;96.87
8894;BME280;4483;48.622;9.230;2023-04-01T05:47:08;96561.63;;;9.16;96.17
8894;BME280;4483;48.622;9.230;2023-04-01T05:49:36;96543.69;;;9.30;94.43
8894;BME280;4483;48.622;9.230;2023-04-01T05:52:02;96547.91;;;9.31;93.91
8894;BME280;4483;48.622;9.230;2023-04-01T05:54:29;96536.88;;;9.29;93.19
8894;BME280;4483;48.622;9.230;2023-04-01T05:56:55;96541.22;;;9.28;91.82
8894;BME280;4483;48.622;9.230;2023-04-01T05:59:22;96553.03;;;9.31;92.01
8894;BME280;4483;48.622;9.230;2023-04-01T06:01:49;96541.03;;;9.31;91.02
8894;BME280;4483;48.622;9.230;2023-04-01T06:04:17;96546.16;;;9.31;91.37
8894;BME280;4483;48.622;9.230;2023-04-01T06:06:46;96536.88;;;9.29;91.19
8894;BME280;4483;48.622;9.230;2023-04-01T06:09:14;96539.44;;;9.29;91.01
8894;BME280;4483;48.622;9.230;2023-04-01T06:11:51;96528.91;;;9.33;91.26
8894;BME280;4483;48.622;9.230;2023-04-01T06:14:29;96525.19;;;9.39;90.44
8894;BME280;4483;48.622;9.230;2023-04-01T06:17:12;96518.88;;;9.44;90.28
8894;BME280;4483;48.622;9.230;2023-04-01T06:19:50;96521.00;;;9.52;90.57
8894;BME280;4483;48.622;9.230;2023-04-01T06:28:46;96513.72;;;9.88;87.53
8894;BME280;4483;48.622;9.230;2023-04-01T06:31:26;96521.72;;;9.97;87.68
8894;BME280;4483;48.622;9.230;2023-04-01T06:34:13;96526.34;;;10.06;86.28
8894;BME280;4483;48.622;9.230;2023-04-01T06:37:03;96527.84;;;10.10;85.51
8894;BME280;4483;48.622;9.230;2023-04-01T06:39:58;96521.03;;;10.09;86.36
8894;BME280;4483;48.622;9.230;2023-04-01T06:42:50;96525.19;;;10.12;86.53
8894;BME280;4483;48.622;9.230;2023-04-01T06:45:28;96531.47;;;10.06;86.20
8894;BME280;4483;48.622;9.230;2023-04-01T06:51:00;96532.47;;;10.04;86.56
8894;BME280;4483;48.622;9.230;2023-04-01T06:53:33;96530.84;;;10.03;86.81
8894;BME280;4483;48.622;9.230;2023-04-01T06:56:08;96530.53;;;10.07;85.64
8894;BME280;4483;48.622;9.230;2023-04-01T06:58:39;96519.44;;;10.07;85.49
8894;BME280;4483;48.622;9.230;2023-04-01T07:01:14;96521.09;;;10.08;85.29
8894;BME280;4483;48.622;9.230;2023-04-01T07:03:47;96530.31;;;10.12;85.44
8894;BME280;4483;48.622;9.230;2023-04-01T07:06:19;96524.88;;;10.17;85.62
8894;BME280;4483;48.622;9.230;2023-04-01T07:08:48;96522.16;;;10.20;84.24
8894;BME280;4483;48.622;9.230;2023-04-01T07:11:22;96517.75;;;10.22;85.12
8894;BME280;4483;48.622;9.230;2023-04-01T07:13:55;96524.72;;;10.20;85.04
8894;BME280;4483;48.622;9.230;2023-04-01T07:16:27;96535.13;;;10.18;85.23
8894;BME280;4483;48.622;9.230;2023-04-01T07:18:59;96539.53;;;10.16;85.06
8894;BME280;4483;48.622;9.230;2023-04-01T07:21:32;96536.75;;;10.19;85.66
8894;BME280;4483;48.622;9.230;2023-04-01T07:24:04;96532.53;;;10.18;84.31
8894;BME280;4483;48.622;9.230;2023-04-01T07:26:33;96536.56;;;10.22;84.50
8894;BME280;4483;48.622;9.230;2023-04-01T07:29:00;96536.41;;;10.25;84.11
8894;BME280;4483;48.622;9.230;2023-04-01T07:31:41;96541.72;;;10.22;84.42
8894;BME280;4483;48.622;9.230;2023-04-01T07:34:17;96535.66;;;10.23;85.42
8894;BME280;4483;48.622;9.230;2023-04-01T07:36:50;96535.47;;;10.26;84.65
8894;BME280;4483;48.622;9.230;2023-04-01T07:39:30;96544.13;;;10.25;85.71
8894;BME280;4483;48.622;9.230;2023-04-01T07:42:05;96533.72;;;10.27;85.46
8894;BME280;4483;48.622;9.230;2023-04-01T07:44:41;96542.09;;;10.30;85.57
8894;BME280;4483;48.622;9.230;2023-04-01T07:47:21;96544.31;;;10.36;84.78
8894;BME280;4483;48.622;9.230;2023-04-01T07:49:59;96542.63;;;10.35;84.63
8894;BME280;4483;48.622;9.230;2023-04-01T07:52:33;96538.75;;;10.42;84.59
8894;BME280;4483;48.622;9.230;2023-04-01T07:55:06;96549.06;;;10.42;84.94
8894;BME280;4483;48.622;9.230;2023-04-01T07:57:41;96553.13;;;10.46;84.92
8894;BME280;4483;48.622;9.230;2023-04-01T08:00:16;96548.59;;;10.50;85.34
8894;BME280;4483;48.622;9.230;2023-04-01T08:02:57;96550.19;;;10.52;84.65
8894;BME280;4483;48.622;9.230;2023-04-01T08:05:33;96544.19;;;10.52;84.67
8894;BME280;4483;48.622;9.230;2023-04-01T08:08:10;96553.66;;;10.51;85.71
8894;BME280;4483;48.622;9.230;2023-04-01T08:10:45;96558.66;;;10.54;84.88
8894;BME280;4483;48.622;9.230;2023-04-01T08:13:20;96548.44;;;10.53;84.97
8894;BME280;4483;48.622;9.230;2023-04-01T08:15:55;96560.69;;;10.49;85.28
8894;BME280;4483;48.622;9.230;2023-04-01T08:18:32;96560.38;;;10.54;85.03
8894;BME280;4483;48.622;9.230;2023-04-01T08:21:02;96556.16;;;10.53;85.59
8894;BME280;4483;48.622;9.230;2023-04-01T08:23:33;96554.41;;;10.53;85.61
8894;BME280;4483;48.622;9.230;2023-04-01T08:26:06;96560.69;;;10.49;85.62
8894;BME280;4483;48.622;9.230;2023-04-01T08:28:38;96559.19;;;10.45;86.95
8894;BME280;4483;48.622;9.230;2023-04-01T08:31:10;96570.25;;;10.47;87.33
8894;BME280;4483;48.622;9.230;2023-04-01T08:33:42;96578.31;;;10.41;87.78
8894;BME280;4483;48.622;9.230;2023-04-01T08:36:13;96564.50;;;10.42;88.14
8894;BME280;4483;48.622;9.230;2023-04-01T08:38:44;96563.59;;;10.43;87.97
8894;BME280;4483;48.622;9.230;2023-04-01T08:41:32;96574.66;;;10.45;87.90
8894;BME280;4483;48.622;9.230;2023-04-01T08:44:25;96565.25;;;10.44;88.69
8894;BME280;4483;48.622;9.230;2023-04-01T08:47:27;96581.00;;;10.40;89.18
8894;BME280;4483;48.622;9.230;2023-04-01T08:53:06;96586.69;;;10.31;90.69
8894;BME280;4483;48.622;9.230;2023-04-01T08:55:43;96570.84;;;10.23;90.87
8894;BME280;4483;48.622;9.230;2023-04-01T09:01:37;96575.63;;;10.14;90.38
8894;BME280;4483;48.622;9.230;2023-04-01T09:04:25;96579.44;;;10.07;91.50
8894;BME280;4483;48.622;9.230;2023-04-01T09:07:04;96573.84;;;10.01;92.54
8894;BME280;4483;48.622;9.230;2023-04-01T09:09:56;96574.28;;;9.93;93.63
8894;BME280;4483;48.622;9.230;2023-04-01T09:12:41;96578.25;;;9.99;92.78
8894;BME280;4483;48.622;9.230;2023-04-01T09:15:37;96584.88;;;10.03;93.99
8894;BME280;4483;48.622;9.230;2023-04-01T09:18:24;96581.78;;;10.12;93.55
8894;BME280;4483;48.622;9.230;2023-04-01T09:27:04;96580.31;;;10.64;92.70
8894;BME280;4483;48.622;9.230;2023-04-01T09:29:55;96585.81;;;10.86;90.87
8894;BME280;4483;48.622;9.230;2023-04-01T09:32:38;96575.31;;;11.03;90.09
8894;BME280;4483;48.622;9.230;2023-04-01T09:35:21;96561.47;;;11.19;90.07
8894;BME280;4483;48.622;9.230;2023-04-01T09:37:54;96585.22;;;11.24;90.58
8894;BME280;4483;48.622;9.230;2023-04-01T09:40:35;96582.09;;;11.19;90.22
8894;BME280;4483;48.622;9.230;2023-04-01T09:43:21;96586.31;;;11.20;90.74
8894;BME280;4483;48.622;9.230;2023-04-01T09:45:58;96599.41;;;11.17;92.14
8894;BME280;4483;48.622;9.230;2023-04-01T09:48:47;96590.41;;;11.09;90.46
8894;BME280;4483;48.622;9.230;2023-04-01T09:51:27;96591.69;;;11.02;90.70
8894;BME280;4483;48.622;9.230;2023-04-01T09:54:07;96601.75;;;10.93;91.30
8894;BME280;4483;48.622;9.230;2023-04-01T10:00:20;96603.75;;;10.88;90.63
8894;BME280;4483;48.622;9.230;2023-04-01T10:03:30;96617.38;;;10.90;90.07
8894;BME280;4483;48.622;9.230;2023-04-01T10:06:46;96606.44;;;10.86;90.22
8894;BME280;4483;48.622;9.230;2023-04-01T10:12:49;96604.06;;;10.83;90.20
8894;BME280;4483;48.622;9.230;2023-04-01T10:15:45;96616.31;;;10.80;88.25
8894;BME280;4483;48.622;9.230;2023-04-01T10:19:01;96609.88;;;10.73;89.20
8894;BME280;4483;48.622;9.230;2023-04-01T10:21:52;96602.59;;;10.65;90.18
8894;BME280;4483;48.622;9.230;2023-04-01T10:24:55;96614.75;;;10.63;91.19
8894;BME280;4483;48.622;9.230;2023-04-01T10:27:52;96609.59;;;10.63;91.54
8894;BME280;4483;48.622;9.230;2023-04-01T10:30:40;96615.47;;;10.65;90.85
8894;BME280;4483;48.622;9.230;2023-04-01T10:33:44;96620.78;;;10.62;91.41
8894;BME280;4483;48.622;9.230;2023-04-01T10:36:48;96618.31;;;10.61;91.69
8894;BME280;4483;48.622;9.230;2023-04-01T10:39:37;96620.53;;;10.67;92.39
8894;BME280;4483;48.622;9.230;2023-04-01T10:48:19;96620.34;;;10.98;90.68
8894;BME280;4483;48.622;9.230;2023-04-01T10:51:14;96628.97;;;11.11;87.21
8894;BME280;4483;48.622;9.230;2023-04-01T10:53:49;96619.00;;;11.19;86.10
8894;BME280;4483;48.622;9.230;2023-04-01T10:56:51;96614.09;;;11.29;85.74
8894;BME280;4483;48.622;9.230;2023-04-01T11:15:24;96616.81;;;11.80;83.17
8894;BME280;4483;48.622;9.230;2023-04-01T11:18:31;96620.13;;;11.82;83.16
8894;BME280;4483;48.622;9.230;2023-04-01T11:21:55;96623.44;;;11.84;83.82
8894;BME280;4483;48.622;9.230;2023-04-01T11:24:40;96623.44;;;11.84;82.77
8894;BME280;4483;48.622;9.230;2023-04-01T11:27:22;96632.41;;;11.79;81.96
8894;BME280;4483;48.622;9.230;2023-04-01T11:30:04;96611.63;;;11.68;80.95
8894;BME280;4483;48.622;9.230;2023-04-01T11:32:43;96622.84;;;11.67;80.98
8894;BME280;4483;48.622;9.230;2023-04-01T11:35:25;96629.50;;;11.57;80.75
8894;BME280;4483;48.622;9.230;2023-04-01T11:38:07;96635.03;;;11.51;81.65
8894;BME280;4483;48.622;9.230;2023-04-01T11:40:45;96634.94;;;11.52;81.43
8894;BME280;4483;48.622;9.230;2023-04-01T11:43:18;96645.34;;;11.51;82.32
8894;BME280;4483;48.622;9.230;2023-04-01T11:45:51;96643.50;;;11.53;80.93
8894;BME280;4483;48.622;9.230;2023-04-01T11:48:32;96647.03;;;11.52;81.37
8894;BME280;4483;48.622;9.230;2023-04-01T11:51:21;96634.81;;;11.54;81.51
8894;BME280;4483;48.622;9.230;2023-04-01T11:54:03;96635.06;;;11.63;81.44
8894;BME280;4483;48.622;9.230;2023-04-01T11:56:43;96646.63;;;11.72;80.08
8894;BME280;4483;48.622;9.230;2023-04-01T11:59:36;96635.34;;;11.73;79.28
8894;BME280;4483;48.622;9.230;2023-04-01T12:02:11;96638.19;;;11.82;80.12
8894;BME280;4483;48.622;9.230;2023-04-01T12:08:04;96631.31;;;12.08;80.27
8894;BME280;4483;48.622;9.230;2023-04-01T12:10:41;96643.41;;;12.20;79.33
8894;BME280;4483;48.622;9.230;2023-04-01T12:13:20;96641.47;;;12.24;79.13
8894;BME280;4483;48.622;9.230;2023-04-01T12:16:04;96635.16;;;12.28;79.00
8894;BME280;4483;48.622;9.230;2023-04-01T12:18:38;96638.78;;;12.25;76.79
8894;BME280;4483;48.622;9.230;2023-04-01T12:21:17;96638.78;;;12.25;76.83
8894;BME280;4483;48.622;9.230;2023-04-01T12:24:25;96650.78;;;12.39;77.11
8894;BME280;4483;48.622;9.230;2023-04-01T12:27:22;96661.13;;;12.51;75.84
8894;BME280;4483;48.622;9.230;2023-04-01T12:30:06;96641.69;;;12.46;74.86
8894;BME280;4483;48.622;9.230;2023-04-01T12:32:41;96628.25;;;12.53;75.08
8894;BME280;4483;48.622;9.230;2023-04-01T12:35:19;96635.38;;;12.75;75.63
8894;BME280;4483;48.622;9.230;2023-04-01T12:37:59;96641.59;;;12.85;72.96
8894;BME280;4483;48.622;9.230;2023-04-01T12:40:46;96652.97;;;12.82;72.70
8894;BME280;4483;48.622;9.230;2023-04-01T12:43:47;96649.22;;;12.99;73.14
8894;BME280;4483;48.622;9.230;2023-04-01T12:46:22;96656.16;;;12.98;73.57
8894;BME280;4483;48.622;9.230;2023-04-01T12:49:08;96640.47;;;12.89;73.18
8894;BME280;4483;48.622;9.230;2023-04-01T12:51:50;96648.13;;;12.78;73.61
8894;BME280;4483;48.622;9.230;2023-04-01T12:54:49;96658.84;;;12.84;73.88
8894;BME280;4483;48.622;9.230;2023-04-01T12:57:31;96654.41;;;12.86;72.48
8894;BME280;4483;48.622;9.230;2023-04-01T13:00:23;96648.50;;;12.84;72.41
8894;BME280;4483;48.622;9.230;2023-04-01T13:03:06;96648.59;;;12.95;72.37
8894;BME280;4483;48.622;9.230;2023-04-01T13:06:16;96657.06;;;13.23;70.57
8894;BME280;4483;48.622;9.230;2023-04-01T13:08:49;96656.50;;;13.43;70.77
8894;BME280;4483;48.622;9.230;2023-04-01T13:11:23;96663.84;;;13.49;68.29
8894;BME280;4483;48.622;9.230;2023-04-01T13:16:54;96652.28;;;13.65;67.63
8894;BME280;4483;48.622;9.230;2023-04-01T13:19:27;96668.31;;;13.94;67.62
8894;BME280;4483;48.622;9.230;2023-04-01T13:22:03;96659.31;;;14.10;65.51
8894;BME280;4483;48.622;9.230;2023-04-01T13:24:40;96658.28;;;14.13;65.11
8894;BME280;4483;48.622;9.230;2023-04-01T13:27:16;96673.34;;;14.08;64.06
8894;BME280;4483;48.622;9.230;2023-04-01T13:29:57;96661.66;;;14.02;64.04
8894;BME280;4483;48.622;9.230;2023-04-01T13:32:32;96677.56;;;14.09;63.49
8894;BME280;4483;48.622;9.230;2023-04-01T13:35:15;96665.47;;;13.86;64.28
8894;BME280;4483;48.622;9.230;2023-04-01T13:37:54;96659.94;;;13.67;64.80
8894;BME280;4483;48.622;9.230;2023-04-01T13:40:33;96664.50;;;13.63;65.56
8894;BME280;4483;48.622;9.230;2023-04-01T13:43:10;96667.94;;;13.64;66.70
8894;BME280;4483;48.622;9.230;2023-04-01T13:45:47;96672.28;;;13.63;66.78
8894;BME280;4483;48.622;9.230;2023-04-01T13:48:31;96666.19;;;13.52;66.09
8894;BME280;4483;48.622;9.230;2023-04-01T13:57:17;96687.66;;;13.41;65.91
8894;BME280;4483;48.622;9.230;2023-04-01T14:00:06;96687.88;;;13.38;66.57
8894;BME280;4483;48.622;9.230;2023-04-01T14:02:46;96705.75;;;13.41;66.82
8894;BME280;4483;48.622;9.230;2023-04-01T14:05:33;96685.69;;;13.45;66.74
8894;BME280;4483;48.622;9.230;2023-04-01T14:08:11;96692.94;;;13.40;67.17
8894;BME280;4483;48.622;9.230;2023-04-01T14:10:44;96687.34;;;13.33;67.33
8894;BME280;4483;48.622;9.230;2023-04-01T14:13:22;96697.31;;;13.27;67.90
8894;BME280;4483;48.622;9.230;2023-04-01T14:16:10;96684.91;;;13.19;68.30
8894;BME280;4483;48.622;9.230;2023-04-01T14:18:53;96689.88;;;13.09;68.18
8894;BME280;4483;48.622;9.230;2023-04-01T14:21:33;96690.69;;;12.97;68.25
8894;BME280;4483;48.622;9.230;2023-04-01T14:24:20;96699.19;;;12.87;68.69
8894;BME280;4483;48.622;9.230;2023-04-01T14:27:17;96698.13;;;12.77;69.22
8894;BME280;4483;48.622;9.230;2023-04-01T14:29:59;96698.25;;;12.75;69.89
8894;BME280;4483;48.622;9.230;2023-04-01T14:32:37;96690.50;;;12.75;69.27
8894;BME280;4483;48.622;9.230;2023-04-01T14:35:24;96701.03;;;12.72;68.80
8894;BME280;4483;48.622;9.230;2023-04-01T14:38:11;96692.56;;;12.70;68.83
8894;BME280;4483;48.622;9.230;2023-04-01T14:40:54;96701.66;;;12.63;70.13
8894;BME280;4483;48.622;9.230;2023-04-01T14:43:44;96701.72;;;12.62;70.56
8894;BME280;4483;48.622;9.230;2023-04-01T14:46:34;96699.81;;;12.65;70.86
8894;BME280;4483;48.622;9.230;2023-04-01T14:49:16;96704.75;;;12.68;70.82
8894;BME280;4483;48.622;9.230;2023-04-01T14:51:46;96699.81;;;12.65;69.47
8894;BME280;4483;48.622;9.230;2023-04-01T14:54:16;96706.91;;;12.62;69.85
8894;BME280;4483;48.622;9.230;2023-04-01T14:56:49;96694.00;;;12.62;70.56
8894;BME280;4483;48.622;9.230;2023-04-01T14:59:26;96704.75;;;12.68;70.47
8894;BME280;4483;48.622;9.230;2023-04-01T15:01:58;96703.09;;;12.67;70.74
8894;BME280;4483;48.622;9.230;2023-04-01T15:04:53;96701.97;;;12.71;70.53
8894;BME280;4483;48.622;9.230;2023-04-01T15:07:47;96696.69;;;12.73;70.25
8894;BME280;4483;48.622;9.230;2023-04-01T15:10:42;96706.94;;;12.74;70.16
8894;BME280;4483;48.622;9.230;2023-04-01T15:13:14;96708.06;;;12.70;69.63